createdAt,value
2023-01-13T00:00:32.540Z,80.86
2023-01-13T00:02:59.144Z,80.83
2023-01-13T00:05:26.733Z,80.84
2023-01-13T00:07:53.349Z,80.86
2023-01-13T00:10:19.866Z,80.83
2023-01-13T00:12:46.439Z,80.64
2023-01-13T00:15:13.443Z,80.83
2023-01-13T00:17:40.401Z,80.70
2023-01-13T00:20:07.927Z,80.83
2023-01-13T00:22:35.308Z,80.89
2023-01-13T00:25:04.212Z,80.72
2023-01-13T00:27:30.763Z,80.89
2023-01-13T00:29:57.293Z,80.80
2023-01-13T00:32:23.865Z,80.92
2023-01-13T00:34:50.516Z,80.71
2023-01-13T00:37:17.027Z,80.75
2023-01-13T00:39:43.622Z,80.84
2023-01-13T00:42:28.851Z,80.83
2023-01-13T00:44:55.371Z,80.75
2023-01-13T00:47:23.355Z,80.86
2023-01-13T00:49:50.197Z,80.71
2023-01-13T00:52:16.674Z,80.92
2023-01-13T00:54:43.180Z,80.94
2023-01-13T00:57:09.703Z,80.89
2023-01-13T00:59:36.449Z,80.87
2023-01-13T01:02:03.076Z,80.81
2023-01-13T01:04:29.757Z,81.10
2023-01-13T01:06:56.297Z,80.86
2023-01-13T01:09:22.835Z,80.92
2023-01-13T01:11:49.415Z,81.02
2023-01-13T01:14:15.916Z,80.81
2023-01-13T01:16:42.526Z,80.81
2023-01-13T01:19:10.271Z,80.57
2023-01-13T01:21:36.895Z,80.71
2023-01-13T01:24:04.612Z,80.67
2023-01-13T01:26:32.064Z,80.52
2023-01-13T01:28:59.442Z,80.44
2023-01-13T01:31:28.486Z,80.38
2023-01-13T01:33:55.388Z,80.52
2023-01-13T01:36:26.313Z,80.29
2023-01-13T01:38:52.973Z,80.42
2023-01-13T01:41:23.305Z,80.21
2023-01-13T01:44:07.046Z,79.90
2023-01-13T01:46:44.827Z,80.06
2023-01-13T01:49:32.536Z,80.05
2023-01-13T01:52:13.256Z,80.02
2023-01-13T01:54:54.450Z,80.05
2023-01-13T01:57:30.212Z,79.87
2023-01-13T02:00:00.977Z,80.29
2023-01-13T02:02:30.310Z,79.91
2023-01-13T02:04:57.293Z,80.11
2023-01-13T02:07:30.558Z,79.98
2023-01-13T02:10:01.522Z,79.95
2023-01-13T02:12:32.377Z,79.88
2023-01-13T02:15:07.371Z,80.00
2023-01-13T02:18:20.034Z,79.72
2023-01-13T02:21:05.724Z,79.80
2023-01-13T02:24:39.886Z,79.60
2023-01-13T02:27:39.037Z,79.69
2023-01-13T02:30:31.429Z,79.89
2023-01-13T02:33:19.482Z,79.62
2023-01-13T02:35:55.415Z,79.77
2023-01-13T02:39:00.957Z,79.65
2023-01-13T02:41:52.717Z,79.91
2023-01-13T02:44:26.888Z,79.69
2023-01-13T02:46:57.038Z,79.66
2023-01-13T02:50:03.925Z,79.67
2023-01-13T02:52:38.348Z,79.76
2023-01-13T02:55:12.962Z,79.71
2023-01-13T02:57:41.997Z,79.97
2023-01-13T03:00:11.342Z,79.71
2023-01-13T03:02:38.623Z,79.71
2023-01-13T03:05:06.149Z,79.77
2023-01-13T03:07:55.952Z,79.41
2023-01-13T03:10:33.283Z,79.17
2023-01-13T03:13:02.479Z,79.63
2023-01-13T03:15:43.447Z,79.54
2023-01-13T03:18:26.507Z,79.39
2023-01-13T03:21:11.636Z,79.34
2023-01-13T03:24:02.226Z,79.49
2023-01-13T03:26:43.260Z,79.35
2023-01-13T03:29:47.340Z,79.27
2023-01-13T03:32:26.618Z,79.38
2023-01-13T03:35:00.319Z,79.48
2023-01-13T03:37:35.957Z,79.34
2023-01-13T03:40:20.429Z,79.51
2023-01-13T03:43:13.612Z,79.39
2023-01-13T03:45:42.054Z,79.25
2023-01-13T03:48:17.900Z,79.39
2023-01-13T03:50:49.500Z,79.34
2023-01-13T03:53:26.707Z,79.42
2023-01-13T03:56:02.800Z,79.05
2023-01-13T03:58:35.204Z,79.48
2023-01-13T04:01:35.082Z,79.24
2023-01-13T04:04:07.377Z,79.35
2023-01-13T04:07:16.583Z,79.38
2023-01-13T04:09:50.841Z,79.39
2023-01-13T04:12:25.570Z,79.47
2023-01-13T04:14:54.001Z,79.41
2023-01-13T04:17:21.214Z,79.38
2023-01-13T04:19:47.587Z,79.48
2023-01-13T04:22:14.031Z,79.49
2023-01-13T04:24:40.424Z,79.50
2023-01-13T04:27:06.856Z,79.44
2023-01-13T04:29:33.297Z,79.41
2023-01-13T04:31:59.730Z,79.35
2023-01-13T04:34:28.282Z,79.47
2023-01-13T04:36:54.895Z,79.54
2023-01-13T04:39:21.345Z,79.47
2023-01-13T04:41:59.620Z,79.35
2023-01-13T04:44:26.889Z,79.33
2023-01-13T04:46:53.609Z,79.49
2023-01-13T04:49:20.275Z,79.41
2023-01-13T04:51:46.689Z,79.56
2023-01-13T04:54:13.179Z,79.44
2023-01-13T04:56:39.636Z,79.22
2023-01-13T04:59:06.079Z,79.39
2023-01-13T05:01:32.566Z,79.34
2023-01-13T05:03:59.039Z,79.35
2023-01-13T05:06:25.436Z,79.48
2023-01-13T05:08:51.875Z,79.34
2023-01-13T05:11:36.897Z,79.44
2023-01-13T05:14:21.687Z,79.45
2023-01-13T05:17:00.416Z,79.54
2023-01-13T05:19:28.442Z,79.17
2023-01-13T05:22:14.205Z,79.13
2023-01-13T05:24:59.061Z,79.49
2023-01-13T05:27:25.506Z,79.30
2023-01-13T05:29:51.966Z,79.41
2023-01-13T05:32:18.423Z,79.54
2023-01-13T05:34:44.882Z,79.54
2023-01-13T05:37:13.145Z,79.44
2023-01-13T05:39:59.528Z,79.53
2023-01-13T05:42:45.257Z,79.50
2023-01-13T05:45:12.450Z,79.38
2023-01-13T05:47:39.562Z,79.72
2023-01-13T05:50:06.392Z,79.64
2023-01-13T05:52:32.869Z,79.55
2023-01-13T05:54:59.277Z,79.59
2023-01-13T05:57:25.730Z,79.54
2023-01-13T05:59:52.159Z,79.48
2023-01-13T06:02:18.590Z,79.57
2023-01-13T06:04:45.057Z,79.57
2023-01-13T06:07:12.410Z,79.54
2023-01-13T06:09:38.861Z,79.67
2023-01-13T06:12:05.665Z,79.69
2023-01-13T06:14:41.123Z,79.66
2023-01-13T06:17:13.478Z,79.55
2023-01-13T06:19:40.168Z,79.47
2023-01-13T06:22:15.714Z,79.54
2023-01-13T06:24:45.812Z,79.66
2023-01-13T06:27:12.808Z,79.53
2023-01-13T06:29:39.217Z,79.70
2023-01-13T06:32:10.424Z,79.64
2023-01-13T06:34:38.560Z,79.75
2023-01-13T06:37:31.158Z,79.65
2023-01-13T06:40:00.290Z,79.84
2023-01-13T06:42:48.340Z,79.85
2023-01-13T06:45:15.129Z,79.80
2023-01-13T06:47:41.762Z,79.84
2023-01-13T06:50:08.823Z,79.93
2023-01-13T06:52:35.205Z,79.82
2023-01-13T06:55:01.907Z,79.95
2023-01-13T06:57:28.363Z,79.89
2023-01-13T06:59:54.802Z,79.84
2023-01-13T07:02:21.310Z,79.85
2023-01-13T07:04:47.850Z,79.91
2023-01-13T07:07:14.335Z,79.87
2023-01-13T07:09:40.749Z,79.88
2023-01-13T07:12:07.676Z,79.63
2023-01-13T07:14:54.207Z,79.85
2023-01-13T07:17:25.067Z,79.70
2023-01-13T07:19:52.589Z,79.88
2023-01-13T07:22:19.025Z,79.72
2023-01-13T07:24:45.528Z,79.69
2023-01-13T07:27:11.917Z,79.69
2023-01-13T07:29:38.566Z,79.68
2023-01-13T07:32:06.981Z,79.65
2023-01-13T07:34:33.737Z,79.58
2023-01-13T07:37:00.381Z,79.64
2023-01-13T07:39:26.767Z,79.52
2023-01-13T07:42:11.781Z,79.69
2023-01-13T07:44:39.229Z,79.63
2023-01-13T07:47:06.033Z,79.59
2023-01-13T07:49:33.099Z,79.95
2023-01-13T07:51:59.489Z,79.77
2023-01-13T07:54:39.709Z,79.82
2023-01-13T07:57:07.613Z,79.98
2023-01-13T07:59:34.033Z,79.88
2023-01-13T08:02:00.793Z,79.96
2023-01-13T08:04:27.285Z,80.13
2023-01-13T08:06:53.727Z,79.90
2023-01-13T08:09:20.181Z,79.82
2023-01-13T08:12:08.407Z,79.78
2023-01-13T08:14:34.838Z,79.89
2023-01-13T08:17:01.248Z,79.80
2023-01-13T08:19:27.658Z,79.64
2023-01-13T08:21:54.133Z,79.75
2023-01-13T08:24:20.570Z,79.65
2023-01-13T08:26:47.004Z,79.72
2023-01-13T08:29:15.041Z,79.71
2023-01-13T08:31:41.657Z,79.54
2023-01-13T08:34:08.115Z,79.52
2023-01-13T08:36:34.509Z,79.53
2023-01-13T08:39:01.082Z,79.57
2023-01-13T08:41:45.823Z,79.35
2023-01-13T08:44:12.281Z,79.53
2023-01-13T08:46:39.027Z,79.50
2023-01-13T08:49:05.801Z,79.52
2023-01-13T08:51:32.239Z,79.36
2023-01-13T08:53:58.875Z,79.33
2023-01-13T08:56:25.336Z,79.50
2023-01-13T08:58:51.784Z,79.45
2023-01-13T09:01:22.664Z,79.50
2023-01-13T09:03:49.218Z,79.41
2023-01-13T09:06:15.763Z,79.46
2023-01-13T09:08:42.247Z,79.53
2023-01-13T09:11:36.737Z,79.50
2023-01-13T09:14:03.774Z,79.20
2023-01-13T09:16:30.416Z,79.54
2023-01-13T09:18:56.850Z,79.56
2023-01-13T09:21:23.669Z,79.58
2023-01-13T09:23:50.065Z,79.55
2023-01-13T09:26:22.795Z,79.42
2023-01-13T09:28:49.233Z,79.51
2023-01-13T09:31:15.685Z,79.50
2023-01-13T09:34:00.812Z,79.46
2023-01-13T09:36:27.221Z,79.44
2023-01-13T09:38:53.645Z,79.39
2023-01-13T09:41:44.628Z,79.38
2023-01-13T09:44:22.189Z,79.38
2023-01-13T09:46:58.101Z,79.45
2023-01-13T09:49:38.511Z,79.40
2023-01-13T09:52:26.591Z,79.21
2023-01-13T09:55:11.868Z,79.24
2023-01-13T09:57:39.837Z,79.03
2023-01-13T10:00:21.652Z,78.94
2023-01-13T10:02:58.170Z,79.13
2023-01-13T10:05:50.765Z,79.09
2023-01-13T10:08:22.387Z,78.99
2023-01-13T10:10:55.115Z,78.83
2023-01-13T10:13:27.897Z,79.04
2023-01-13T10:16:07.858Z,78.98
2023-01-13T10:18:44.545Z,78.98
2023-01-13T10:21:27.072Z,78.75
2023-01-13T10:24:02.117Z,78.74
2023-01-13T10:26:40.171Z,78.80
2023-01-13T10:29:20.564Z,78.89
2023-01-13T10:31:47.327Z,78.73
2023-01-13T10:34:16.643Z,78.80
2023-01-13T10:36:58.194Z,78.46
2023-01-13T10:39:25.183Z,78.61
2023-01-13T10:42:04.512Z,78.55
2023-01-13T10:44:31.097Z,78.35
2023-01-13T10:46:59.403Z,78.28
2023-01-13T10:49:27.833Z,78.18
2023-01-13T10:51:54.273Z,77.98
2023-01-13T10:54:23.544Z,78.09
2023-01-13T10:57:11.365Z,77.80
2023-01-13T10:59:38.207Z,77.96
2023-01-13T11:02:26.850Z,77.80
2023-01-13T11:04:53.590Z,78.10
2023-01-13T11:07:41.607Z,77.84
2023-01-13T11:10:27.510Z,77.74
2023-01-13T11:13:03.144Z,77.79
2023-01-13T11:15:57.708Z,77.55
2023-01-13T11:19:02.401Z,77.44
2023-01-13T11:21:38.796Z,77.57
2023-01-13T11:24:29.699Z,77.23
2023-01-13T11:27:02.086Z,77.55
2023-01-13T11:29:50.241Z,77.32
2023-01-13T11:32:22.999Z,77.56
2023-01-13T11:35:02.008Z,77.28
2023-01-13T11:37:32.633Z,77.61
2023-01-13T11:40:39.111Z,77.43
2023-01-13T11:43:27.676Z,77.23
2023-01-13T11:45:58.250Z,77.44
2023-01-13T11:48:29.033Z,77.37
2023-01-13T11:51:10.855Z,77.20
2023-01-13T11:54:07.500Z,77.27
2023-01-13T11:57:06.756Z,77.15
2023-01-13T11:59:54.452Z,77.04
2023-01-13T12:02:29.859Z,77.31
2023-01-13T12:05:25.407Z,77.06
2023-01-13T12:08:00.919Z,77.13
2023-01-13T12:10:38.038Z,77.05
2023-01-13T12:13:24.685Z,77.00
2023-01-13T12:16:09.887Z,77.14
2023-01-13T12:18:44.908Z,76.84
2023-01-13T12:21:24.601Z,76.66
2023-01-13T12:24:10.662Z,76.59
2023-01-13T12:26:41.708Z,76.42
2023-01-13T12:29:15.251Z,76.61
2023-01-13T12:31:43.698Z,76.82
2023-01-13T12:34:41.130Z,76.50
2023-01-13T12:37:26.276Z,76.35
2023-01-13T12:40:19.457Z,76.38
2023-01-13T12:43:16.967Z,76.49
2023-01-13T12:45:46.558Z,76.59
2023-01-13T12:48:52.861Z,76.22
2023-01-13T12:51:35.554Z,76.11
2023-01-13T12:54:23.359Z,76.48
2023-01-13T12:56:49.959Z,76.61
2023-01-13T12:59:16.266Z,76.40
2023-01-13T13:01:44.380Z,76.61
2023-01-13T13:04:13.664Z,76.41
2023-01-13T13:06:43.374Z,76.42
2023-01-13T13:09:28.969Z,76.19
2023-01-13T13:11:58.111Z,76.45
2023-01-13T13:14:39.604Z,76.20
2023-01-13T13:17:19.601Z,76.06
2023-01-13T13:19:48.739Z,76.25
2023-01-13T13:22:28.536Z,76.45
2023-01-13T13:24:54.904Z,76.53
2023-01-13T13:27:34.267Z,76.20
2023-01-13T13:30:22.425Z,76.39
2023-01-13T13:33:12.401Z,76.46
2023-01-13T13:35:59.272Z,76.41
2023-01-13T13:39:02.668Z,76.47
2023-01-13T13:41:48.287Z,76.38
2023-01-13T13:44:40.623Z,76.27
2023-01-13T13:47:08.064Z,76.47
2023-01-13T13:49:45.971Z,76.39
2023-01-13T13:52:27.376Z,76.40
2023-01-13T13:54:58.499Z,76.23
2023-01-13T13:57:39.535Z,76.44
2023-01-13T14:00:21.443Z,76.56
2023-01-13T14:02:58.549Z,76.45
2023-01-13T14:05:29.031Z,76.67
2023-01-13T14:08:16.576Z,76.38
2023-01-13T14:10:45.556Z,76.60
2023-01-13T14:13:18.673Z,76.38
2023-01-13T14:15:47.311Z,76.66
2023-01-13T14:18:17.951Z,76.41
2023-01-13T14:21:03.189Z,76.37
2023-01-13T14:23:33.626Z,76.54
2023-01-13T14:26:09.258Z,76.12
2023-01-13T14:28:40.766Z,76.25
2023-01-13T14:31:09.362Z,76.22
2023-01-13T14:33:46.005Z,76.51
2023-01-13T14:36:15.511Z,76.55
2023-01-13T14:38:44.128Z,76.42
2023-01-13T14:41:36.917Z,76.02
2023-01-13T14:44:28.551Z,76.29
2023-01-13T14:46:58.005Z,76.32
2023-01-13T14:49:30.428Z,76.34
2023-01-13T14:52:20.179Z,76.30
2023-01-13T14:54:51.033Z,76.47
2023-01-13T14:57:25.878Z,76.39
2023-01-13T14:59:56.109Z,76.26
2023-01-13T15:02:25.544Z,76.28
2023-01-13T15:04:58.544Z,76.28
2023-01-13T15:07:27.145Z,76.40
2023-01-13T15:09:56.753Z,76.51
2023-01-13T15:12:37.945Z,76.14
2023-01-13T15:15:19.610Z,76.28
2023-01-13T15:17:49.438Z,76.41
2023-01-13T15:20:17.642Z,76.24
2023-01-13T15:22:44.072Z,76.22
2023-01-13T15:25:10.739Z,76.13
2023-01-13T15:27:38.776Z,76.07
2023-01-13T15:30:25.469Z,76.03
2023-01-13T15:32:53.588Z,76.09
2023-01-13T15:35:22.055Z,76.14
2023-01-13T15:37:49.652Z,76.12
2023-01-13T15:40:22.116Z,76.06
2023-01-13T15:43:07.549Z,76.03
2023-01-13T15:45:54.413Z,76.11
2023-01-13T15:48:22.590Z,76.07
2023-01-13T15:50:49.240Z,76.04
2023-01-13T15:53:16.145Z,76.07
2023-01-13T15:55:44.752Z,76.03
2023-01-13T15:58:13.349Z,76.00
2023-01-13T16:00:40.783Z,75.96
2023-01-13T16:03:12.365Z,76.02
2023-01-13T16:05:39.546Z,75.79
2023-01-13T16:08:16.624Z,75.76
2023-01-13T16:10:44.902Z,75.90
2023-01-13T16:13:12.507Z,75.69
2023-01-13T16:15:47.997Z,75.69
2023-01-13T16:18:17.993Z,75.69
2023-01-13T16:20:47.952Z,75.91
2023-01-13T16:23:14.388Z,75.92
2023-01-13T16:25:43.572Z,75.81
2023-01-13T16:28:22.111Z,75.61
2023-01-13T16:30:48.790Z,75.47
2023-01-13T16:33:15.405Z,75.67
2023-01-13T16:36:09.312Z,75.46
2023-01-13T16:38:28.758Z,75.61
2023-01-13T16:40:56.759Z,75.26
2023-01-13T16:43:23.159Z,75.47
2023-01-13T16:45:49.743Z,75.50
2023-01-13T16:48:19.905Z,75.13
2023-01-13T16:50:46.681Z,75.37
2023-01-13T16:53:13.324Z,75.26
2023-01-13T16:55:41.359Z,75.42
2023-01-13T16:58:16.577Z,75.37
2023-01-13T17:00:46.579Z,75.36
2023-01-13T17:03:14.158Z,75.35
2023-01-13T17:05:42.990Z,75.29
2023-01-13T17:08:18.012Z,75.12
2023-01-13T17:10:45.552Z,74.85
2023-01-13T17:13:16.361Z,74.99
2023-01-13T17:15:44.209Z,75.01
2023-01-13T17:18:13.169Z,75.04
2023-01-13T17:20:40.366Z,74.98
2023-01-13T17:23:06.815Z,74.82
2023-01-13T17:25:33.266Z,75.09
2023-01-13T17:27:59.657Z,75.15
2023-01-13T17:30:26.074Z,75.30
2023-01-13T17:32:52.774Z,75.22
2023-01-13T17:35:24.711Z,75.29
2023-01-13T17:37:54.563Z,75.33
2023-01-13T17:40:21.183Z,75.34
2023-01-13T17:42:47.610Z,75.45
2023-01-13T17:45:14.105Z,75.49
2023-01-13T17:47:40.493Z,75.47
2023-01-13T17:50:07.089Z,75.51
2023-01-13T17:52:34.225Z,75.58
2023-01-13T17:55:00.664Z,75.60
2023-01-13T17:57:27.094Z,75.69
2023-01-13T17:59:53.531Z,75.64
2023-01-13T18:02:20.084Z,75.59
2023-01-13T18:04:46.571Z,75.55
2023-01-13T18:07:13.242Z,75.54
2023-01-13T18:09:39.689Z,75.52
2023-01-13T18:12:06.322Z,75.51
2023-01-13T18:14:32.805Z,75.51
2023-01-13T18:16:59.296Z,75.45
2023-01-13T18:19:44.376Z,75.41
2023-01-13T18:22:32.872Z,74.89
2023-01-13T18:25:17.924Z,75.37
2023-01-13T18:27:44.361Z,75.41
2023-01-13T18:30:12.209Z,75.41
2023-01-13T18:32:38.851Z,75.50
2023-01-13T18:35:10.068Z,75.49
2023-01-13T18:37:39.883Z,75.49
2023-01-13T18:40:09.173Z,75.57
2023-01-13T18:42:51.509Z,75.62
2023-01-13T18:45:24.303Z,75.63
2023-01-13T18:47:51.819Z,75.67
2023-01-13T18:50:18.872Z,75.61
2023-01-13T18:52:45.815Z,75.74
2023-01-13T18:55:12.245Z,75.74
2023-01-13T18:57:39.942Z,75.67
2023-01-13T19:00:09.573Z,75.97
2023-01-13T19:02:36.216Z,75.80
2023-01-13T19:05:02.795Z,75.95
2023-01-13T19:07:30.502Z,75.99
2023-01-13T19:09:59.193Z,75.77
2023-01-13T19:12:27.419Z,75.98
2023-01-13T19:14:55.218Z,76.11
2023-01-13T19:17:23.187Z,76.12
2023-01-13T19:19:52.615Z,76.03
2023-01-13T19:22:30.903Z,76.11
2023-01-13T19:24:58.441Z,76.27
2023-01-13T19:27:27.267Z,76.16
2023-01-13T19:29:54.084Z,76.21
2023-01-13T19:32:21.974Z,76.29
2023-01-13T19:34:50.672Z,76.20
2023-01-13T19:37:17.955Z,76.25
2023-01-13T19:39:44.476Z,76.16
2023-01-13T19:42:31.148Z,76.29
2023-01-13T19:45:16.320Z,76.35
2023-01-13T19:47:45.294Z,76.33
2023-01-13T19:50:12.997Z,76.44
2023-01-13T19:52:39.484Z,76.45
2023-01-13T19:55:06.381Z,76.24
2023-01-13T19:57:32.788Z,76.45
2023-01-13T19:59:59.244Z,76.42
2023-01-13T20:02:28.872Z,76.44
2023-01-13T20:04:56.814Z,76.50
2023-01-13T20:07:25.570Z,76.51
2023-01-13T20:09:52.760Z,76.51
2023-01-13T20:12:21.043Z,76.60
2023-01-13T20:14:49.807Z,76.61
2023-01-13T20:17:18.724Z,76.70
2023-01-13T20:19:45.405Z,76.69
2023-01-13T20:22:12.295Z,76.73
2023-01-13T20:24:38.713Z,76.63
2023-01-13T20:27:05.859Z,76.63
2023-01-13T20:29:45.597Z,76.70
2023-01-13T20:32:12.106Z,76.75
2023-01-13T20:34:38.502Z,76.77
2023-01-13T20:37:04.937Z,76.78
2023-01-13T20:39:31.654Z,76.83
2023-01-13T20:42:16.711Z,76.85
2023-01-13T20:44:44.929Z,76.67
2023-01-13T20:47:11.358Z,76.78
2023-01-13T20:49:41.141Z,76.79
2023-01-13T20:52:10.799Z,76.75
2023-01-13T20:54:37.971Z,76.79
2023-01-13T20:57:05.671Z,76.85
2023-01-13T20:59:32.400Z,76.60
2023-01-13T21:01:58.801Z,76.75
2023-01-13T21:04:25.552Z,76.75
2023-01-13T21:06:52.532Z,76.72
2023-01-13T21:09:19.361Z,76.69
2023-01-13T21:12:04.477Z,76.72
2023-01-13T21:14:49.638Z,76.67
2023-01-13T21:17:34.873Z,76.72
2023-01-13T21:20:04.090Z,76.72
2023-01-13T21:22:30.868Z,76.64
2023-01-13T21:24:58.386Z,76.68
2023-01-13T21:27:25.944Z,76.70
2023-01-13T21:29:52.327Z,76.61
2023-01-13T21:32:18.789Z,76.46
2023-01-13T21:34:45.226Z,76.59
2023-01-13T21:37:11.616Z,76.53
2023-01-13T21:39:38.079Z,76.52
2023-01-13T21:42:23.219Z,76.56
2023-01-13T21:45:08.346Z,76.51
2023-01-13T21:47:50.241Z,76.48
2023-01-13T21:50:20.241Z,76.23
2023-01-13T21:52:48.340Z,76.33
2023-01-13T21:55:28.204Z,76.48
2023-01-13T21:58:08.521Z,76.48
2023-01-13T22:00:35.105Z,76.46
2023-01-13T22:03:06.525Z,76.20
2023-01-13T22:05:33.044Z,76.49
2023-01-13T22:07:59.771Z,76.16
2023-01-13T22:10:30.015Z,76.37
2023-01-13T22:12:59.363Z,76.42
2023-01-13T22:15:28.646Z,76.47
2023-01-13T22:17:56.375Z,76.63
2023-01-13T22:20:23.583Z,76.56
2023-01-13T22:22:50.198Z,76.48
2023-01-13T22:25:20.021Z,76.56
2023-01-13T22:27:48.197Z,76.44
2023-01-13T22:30:18.377Z,76.51
2023-01-13T22:32:46.355Z,76.61
2023-01-13T22:35:14.876Z,76.61
2023-01-13T22:37:42.296Z,76.58
2023-01-13T22:40:11.057Z,76.72
2023-01-13T22:42:41.514Z,76.59
2023-01-13T22:45:11.790Z,76.70
2023-01-13T22:47:38.666Z,76.77
2023-01-13T22:50:06.269Z,76.84
2023-01-13T22:52:34.436Z,76.78
2023-01-13T22:55:01.205Z,76.84
2023-01-13T22:57:36.171Z,76.73
2023-01-13T23:00:10.254Z,76.60
2023-01-13T23:02:38.014Z,76.74
2023-01-13T23:05:04.625Z,76.58
2023-01-13T23:07:31.033Z,76.85
2023-01-13T23:09:57.431Z,76.69
2023-01-13T23:12:23.857Z,76.82
2023-01-13T23:14:50.249Z,76.92
2023-01-13T23:17:16.653Z,76.86
2023-01-13T23:19:43.099Z,76.72
2023-01-13T23:22:09.577Z,76.87
2023-01-13T23:24:35.982Z,76.85
2023-01-13T23:27:02.406Z,76.93
2023-01-13T23:29:28.836Z,76.83
2023-01-13T23:31:55.277Z,77.15
2023-01-13T23:34:21.794Z,77.02
2023-01-13T23:36:48.237Z,77.08
2023-01-13T23:39:14.668Z,77.11
2023-01-13T23:41:41.029Z,77.21
2023-01-13T23:44:07.524Z,77.19
2023-01-13T23:46:35.160Z,77.03
2023-01-13T23:49:03.512Z,77.17
2023-01-13T23:51:30.382Z,77.28
2023-01-13T23:53:57.961Z,77.18
2023-01-13T23:56:28.285Z,77.04
2023-01-13T23:58:55.653Z,77.30
